createdAt,value
2023-04-17T00:01:16.727Z,9.20
2023-04-17T00:03:48.717Z,9.20
2023-04-17T00:06:21.074Z,9.30
2023-04-17T00:08:53.733Z,9.40
2023-04-17T00:11:26.800Z,9.40
2023-04-17T00:13:58.732Z,9.50
2023-04-17T00:16:31.075Z,9.50
2023-04-17T00:19:03.104Z,9.50
2023-04-17T00:21:35.418Z,9.50
2023-04-17T00:24:07.661Z,9.50
2023-04-17T00:26:40.760Z,9.50
2023-04-17T00:29:12.855Z,9.50
2023-04-17T00:31:45.505Z,9.50
2023-04-17T00:34:17.424Z,9.40
2023-04-17T00:36:49.677Z,9.60
2023-04-17T00:39:21.673Z,9.50
2023-04-17T00:41:53.971Z,9.50
2023-04-17T00:49:31.423Z,9.50
2023-04-17T00:52:03.888Z,9.50
2023-04-17T00:54:36.410Z,9.50
2023-04-17T00:57:08.721Z,9.50
2023-04-17T00:59:41.479Z,9.50
2023-04-17T01:02:13.975Z,9.40
2023-04-17T01:04:46.338Z,9.40
2023-04-17T01:07:19.154Z,9.40
2023-04-17T01:09:51.110Z,9.40
2023-04-17T01:12:25.005Z,9.40
2023-04-17T01:14:57.824Z,9.40
2023-04-17T01:17:31.290Z,9.40
2023-04-17T01:22:39.861Z,9.40
2023-04-17T01:25:11.954Z,9.50
2023-04-17T01:27:45.193Z,9.40
2023-04-17T01:30:17.140Z,9.40
2023-04-17T01:32:58.376Z,9.40
2023-04-17T01:35:30.396Z,9.40
2023-04-17T01:38:03.787Z,9.40
2023-04-17T01:40:36.007Z,9.40
2023-04-17T01:43:09.191Z,9.40
2023-04-17T01:50:46.747Z,9.40
2023-04-17T01:53:19.387Z,9.40
2023-04-17T01:55:52.143Z,9.40
2023-04-17T01:58:24.860Z,9.40
2023-04-17T02:00:57.243Z,9.40
2023-04-17T02:03:29.942Z,9.40
2023-04-17T02:06:02.386Z,9.40
2023-04-17T02:08:34.999Z,9.40
2023-04-17T02:11:10.420Z,9.40
2023-04-17T02:13:42.311Z,9.40
2023-04-17T02:16:14.944Z,9.40
2023-04-17T02:18:48.392Z,9.40
2023-04-17T02:21:21.602Z,9.30
2023-04-17T02:23:53.873Z,9.30
2023-04-17T02:26:26.474Z,9.30
2023-04-17T02:28:58.393Z,9.40
2023-04-17T02:31:31.664Z,9.40
2023-04-17T02:34:03.582Z,9.40
2023-04-17T02:36:36.708Z,9.30
2023-04-17T02:39:09.072Z,9.50
2023-04-17T02:41:42.050Z,9.50
2023-04-17T02:44:14.646Z,9.40
2023-04-17T02:54:24.948Z,9.50
2023-04-17T02:56:58.881Z,9.50
2023-04-17T02:59:31.013Z,9.40
2023-04-17T03:02:04.572Z,9.40
2023-04-17T03:04:38.742Z,9.50
2023-04-17T03:07:11.550Z,9.50
2023-04-17T03:09:47.145Z,9.50
2023-04-17T03:12:20.195Z,9.40
2023-04-17T03:14:52.260Z,9.50
2023-04-17T03:17:24.938Z,9.40
2023-04-17T03:19:57.440Z,9.40
2023-04-17T03:22:30.083Z,9.50
2023-04-17T03:25:02.804Z,9.50
2023-04-17T03:27:41.821Z,9.40
2023-04-17T03:30:15.030Z,9.40
2023-04-17T03:32:51.373Z,9.30
2023-04-17T03:35:25.234Z,9.70
2023-04-17T03:37:57.159Z,9.60
2023-04-17T03:40:30.700Z,9.60
2023-04-17T03:43:04.362Z,9.40
2023-04-17T03:45:38.061Z,9.40
2023-04-17T03:53:16.507Z,9.40
2023-04-17T03:55:49.280Z,9.40
2023-04-17T03:58:29.927Z,9.40
2023-04-17T04:01:03.741Z,9.30
2023-04-17T04:03:39.967Z,9.20
2023-04-17T04:06:12.629Z,9.30
2023-04-17T04:08:45.363Z,9.30
2023-04-17T04:11:18.264Z,9.20
2023-04-17T04:13:50.347Z,9.30
2023-04-17T04:16:23.036Z,9.40
2023-04-17T04:21:31.414Z,9.40
2023-04-17T04:24:03.398Z,9.50
2023-04-17T04:26:37.258Z,9.50
2023-04-17T04:29:09.929Z,9.50
2023-04-17T04:31:53.659Z,9.50
2023-04-17T04:34:30.215Z,9.50
2023-04-17T04:37:02.207Z,9.50
2023-04-17T04:39:43.465Z,9.50
2023-04-17T04:42:22.977Z,9.50
2023-04-17T04:45:07.385Z,9.50
2023-04-17T04:47:41.184Z,9.50
2023-04-17T04:50:13.873Z,9.50
2023-04-17T04:52:46.041Z,9.50
2023-04-17T04:55:35.905Z,9.50
2023-04-17T04:58:07.826Z,9.50
2023-04-17T05:00:43.918Z,9.50
2023-04-17T05:03:22.470Z,9.50
2023-04-17T05:05:56.161Z,9.50
2023-04-17T05:08:33.306Z,9.50
2023-04-17T05:13:47.602Z,9.50
2023-04-17T05:16:28.753Z,9.50
2023-04-17T05:19:01.572Z,9.60
2023-04-17T05:21:50.642Z,9.60
2023-04-17T05:24:25.725Z,9.60
2023-04-17T05:29:30.899Z,9.60
2023-04-17T05:37:31.678Z,9.50
2023-04-17T05:40:06.918Z,9.50
2023-04-17T05:42:39.414Z,9.50
2023-04-17T05:45:15.405Z,9.60
2023-04-17T05:47:47.790Z,9.60
2023-04-17T05:50:20.503Z,9.60
2023-04-17T05:52:52.752Z,9.50
2023-04-17T05:55:28.103Z,9.60
2023-04-17T05:58:07.996Z,9.60
2023-04-17T06:00:56.366Z,9.70
2023-04-17T06:03:29.470Z,9.70
2023-04-17T06:13:51.933Z,9.80
2023-04-17T06:16:24.957Z,12.10
2023-04-17T06:18:56.854Z,10.00
2023-04-17T06:21:29.478Z,10.00
2023-04-17T06:26:39.090Z,10.20
2023-04-17T06:31:47.102Z,10.40
2023-04-17T06:36:55.217Z,10.60
2023-04-17T06:44:33.274Z,10.60
2023-04-17T06:49:43.022Z,10.70
2023-04-17T06:52:20.513Z,10.60
2023-04-17T06:54:54.896Z,10.60
2023-04-17T06:59:59.981Z,10.60
2023-04-17T07:02:32.729Z,10.70
2023-04-17T07:05:08.474Z,10.80
2023-04-17T07:07:41.524Z,10.80
2023-04-17T07:12:48.192Z,10.90
2023-04-17T07:15:21.043Z,10.90
2023-04-17T07:17:52.947Z,10.90
2023-04-17T07:20:25.569Z,10.40
2023-04-17T07:22:57.468Z,11.00
2023-04-17T07:25:30.090Z,10.90
2023-04-17T07:33:10.287Z,10.90
2023-04-17T07:35:43.751Z,11.00
2023-04-17T07:40:48.628Z,11.20
2023-04-17T07:48:27.306Z,11.10
2023-04-17T07:51:03.371Z,11.20
2023-04-17T07:53:36.221Z,11.20
2023-04-17T07:56:08.507Z,11.30
2023-04-17T07:58:40.394Z,11.30
2023-04-17T08:01:13.968Z,11.40
2023-04-17T08:03:46.194Z,11.50
2023-04-17T08:06:19.215Z,11.60
2023-04-17T08:08:51.116Z,11.60
2023-04-17T08:11:23.834Z,11.60
2023-04-17T08:13:55.894Z,11.60
2023-04-17T08:16:28.378Z,11.60
2023-04-17T08:19:00.538Z,11.60
2023-04-17T08:21:33.237Z,11.60
2023-04-17T08:24:05.854Z,11.70
2023-04-17T08:26:38.453Z,11.70
2023-04-17T08:29:10.521Z,11.70
2023-04-17T08:34:15.843Z,11.80
2023-04-17T08:36:48.490Z,11.90
2023-04-17T08:39:20.668Z,11.80
2023-04-17T08:42:03.213Z,11.90
2023-04-17T08:44:35.730Z,11.90
2023-04-17T08:47:09.730Z,12.00
2023-04-17T08:49:43.770Z,12.60
2023-04-17T08:52:17.161Z,11.90
2023-04-17T08:57:24.183Z,11.90
2023-04-17T08:59:56.320Z,11.90
2023-04-17T09:02:28.747Z,11.90
2023-04-17T09:05:01.753Z,11.90
2023-04-17T09:07:34.585Z,11.80
2023-04-17T09:10:07.041Z,11.70
2023-04-17T09:12:42.097Z,11.70
2023-04-17T09:15:17.956Z,12.00
2023-04-17T09:17:50.884Z,12.30
2023-04-17T09:20:22.963Z,12.40
2023-04-17T09:23:05.704Z,12.50
2023-04-17T09:25:37.955Z,12.60
2023-04-17T09:28:13.717Z,12.40
2023-04-17T09:30:46.822Z,12.30
2023-04-17T09:33:18.692Z,12.30
2023-04-17T09:35:51.436Z,12.40
2023-04-17T09:38:39.964Z,12.50
2023-04-17T09:41:27.926Z,12.80
2023-04-17T09:44:01.889Z,13.00
2023-04-17T09:46:39.152Z,13.30
2023-04-17T09:49:42.680Z,14.20
2023-04-17T09:52:15.951Z,15.50
2023-04-17T09:57:21.932Z,15.10
2023-04-17T09:59:57.745Z,14.30
2023-04-17T10:02:29.938Z,14.00
2023-04-17T10:05:04.933Z,13.60
2023-04-17T10:07:37.889Z,13.40
2023-04-17T10:10:13.717Z,13.20
2023-04-17T10:12:49.469Z,13.10
2023-04-17T10:15:23.916Z,13.20
2023-04-17T10:18:23.662Z,13.20
2023-04-17T10:20:57.156Z,13.50
2023-04-17T10:23:34.830Z,13.70
2023-04-17T10:26:25.831Z,13.70
2023-04-17T10:32:09.052Z,13.80
2023-04-17T10:39:56.729Z,13.80
2023-04-17T10:42:30.598Z,13.90
2023-04-17T10:47:39.317Z,13.60
2023-04-17T10:50:11.318Z,13.40
2023-04-17T10:52:45.748Z,13.20
2023-04-17T10:55:23.567Z,13.00
2023-04-17T10:58:05.799Z,12.90
2023-04-17T11:00:50.002Z,12.80
2023-04-17T11:03:26.926Z,12.60
2023-04-17T11:06:00.575Z,12.60
2023-04-17T11:08:32.569Z,12.60
2023-04-17T11:11:05.279Z,12.70
2023-04-17T11:16:10.209Z,13.00
2023-04-17T11:18:45.970Z,13.20
2023-04-17T11:21:19.252Z,13.20
2023-04-17T11:23:55.028Z,13.30
2023-04-17T11:26:27.676Z,13.60
2023-04-17T11:29:01.042Z,13.90
2023-04-17T11:31:33.798Z,14.30
2023-04-17T11:36:41.087Z,14.70
2023-04-17T11:39:15.754Z,14.80
2023-04-17T11:41:48.075Z,14.60
2023-04-17T11:44:21.015Z,14.50
2023-04-17T11:46:59.238Z,14.30
2023-04-17T11:49:33.470Z,14.10
2023-04-17T11:52:06.422Z,14.10
2023-04-17T11:54:38.623Z,14.00
2023-04-17T11:57:15.079Z,14.00
2023-04-17T11:59:46.990Z,13.70
2023-04-17T12:02:33.980Z,13.70
2023-04-17T12:05:18.357Z,13.50
2023-04-17T12:08:06.330Z,13.50
2023-04-17T12:10:44.808Z,13.70
2023-04-17T12:13:16.684Z,13.90
2023-04-17T12:23:27.270Z,14.50
2023-04-17T12:25:59.917Z,15.00
2023-04-17T12:28:31.840Z,15.40
2023-04-17T12:31:05.360Z,15.60
2023-04-17T12:36:10.494Z,15.70
2023-04-17T12:38:43.112Z,15.80
2023-04-17T12:41:15.803Z,15.80
2023-04-17T12:43:47.717Z,15.40
2023-04-17T12:46:20.795Z,15.20
2023-04-17T12:51:37.948Z,15.20
2023-04-17T12:54:10.299Z,15.30
2023-04-17T12:56:43.262Z,15.60
2023-04-17T12:59:15.254Z,16.00
2023-04-17T13:01:47.861Z,16.40
2023-04-17T13:04:20.173Z,16.50
2023-04-17T13:06:54.896Z,16.90
2023-04-17T13:09:26.804Z,17.00
2023-04-17T13:11:59.073Z,16.60
2023-04-17T13:14:30.976Z,16.40
2023-04-17T13:17:04.214Z,15.80
2023-04-17T13:22:09.327Z,14.90
2023-04-17T13:29:46.794Z,14.20
2023-04-17T13:32:19.418Z,14.00
2023-04-17T13:37:24.527Z,13.80
2023-04-17T13:39:57.135Z,13.80
2023-04-17T13:42:29.023Z,13.90
2023-04-17T13:45:01.601Z,14.00
2023-04-17T13:47:33.548Z,14.30
2023-04-17T13:50:07.150Z,14.50
2023-04-17T13:52:39.122Z,14.60
2023-04-17T14:02:54.341Z,15.40
2023-04-17T14:05:27.048Z,15.70
2023-04-17T14:07:59.100Z,15.50
2023-04-17T14:10:31.358Z,15.20
2023-04-17T14:13:03.281Z,15.00
2023-04-17T14:15:36.009Z,15.20
2023-04-17T14:18:09.737Z,15.50
2023-04-17T14:20:42.435Z,15.50
2023-04-17T14:23:14.377Z,15.50
2023-04-17T14:25:47.315Z,15.30
2023-04-17T14:28:21.015Z,15.20
2023-04-17T14:30:53.518Z,15.10
2023-04-17T14:33:25.684Z,14.90
2023-04-17T14:35:58.673Z,14.60
2023-04-17T14:38:30.716Z,14.40
2023-04-17T14:41:03.559Z,14.50
2023-04-17T14:43:35.630Z,14.80
2023-04-17T14:46:08.277Z,15.10
2023-04-17T14:48:54.264Z,15.30
2023-04-17T14:51:30.222Z,15.40
2023-04-17T14:56:35.324Z,15.50
2023-04-17T15:01:39.668Z,15.40
2023-04-17T15:06:45.021Z,15.20
2023-04-17T15:09:17.283Z,15.10
2023-04-17T15:11:49.235Z,15.00
2023-04-17T15:16:54.246Z,15.00
2023-04-17T15:21:58.848Z,15.00
2023-04-17T15:24:32.230Z,15.00
2023-04-17T15:27:04.171Z,14.90
2023-04-17T15:34:42.182Z,14.50
2023-04-17T15:37:14.118Z,14.30
2023-04-17T15:39:46.823Z,14.20
2023-04-17T15:42:18.765Z,14.20
2023-04-17T15:44:51.419Z,13.80
2023-04-17T15:49:56.518Z,14.00
2023-04-17T15:57:33.857Z,14.10
2023-04-17T16:00:07.645Z,14.10
2023-04-17T16:05:19.010Z,13.90
2023-04-17T16:10:24.169Z,14.00
2023-04-17T16:15:29.111Z,14.00
2023-04-17T16:20:35.365Z,15.30
2023-04-17T16:25:40.366Z,14.40
2023-04-17T16:28:13.048Z,14.20
2023-04-17T16:30:45.042Z,14.00
2023-04-17T16:33:17.671Z,13.80
2023-04-17T16:46:14.319Z,13.60
2023-04-17T16:48:51.548Z,13.70
2023-04-17T16:51:26.985Z,13.80
2023-04-17T16:54:00.764Z,13.90
2023-04-17T16:59:06.191Z,13.40
2023-04-17T17:01:38.157Z,13.10
2023-04-17T17:04:10.930Z,12.70
2023-04-17T17:09:16.093Z,12.40
2023-04-17T17:14:21.390Z,12.10
2023-04-17T17:21:59.046Z,11.80
2023-04-17T17:24:31.759Z,11.80
2023-04-17T17:29:36.636Z,11.70
2023-04-17T17:32:09.294Z,11.80
2023-04-17T17:34:41.982Z,11.80
2023-04-17T17:47:24.473Z,11.50
2023-04-17T17:52:29.402Z,11.30
2023-04-17T17:55:02.273Z,11.30
2023-04-17T18:00:21.360Z,10.90
2023-04-17T18:02:53.508Z,11.00
2023-04-17T18:05:26.340Z,11.00
2023-04-17T18:07:58.396Z,10.90
2023-04-17T18:10:30.721Z,10.90
2023-04-17T18:13:03.200Z,10.90
2023-04-17T18:15:36.679Z,10.90
2023-04-17T18:18:08.734Z,10.80
2023-04-17T18:20:41.364Z,10.80
2023-04-17T18:23:13.224Z,10.80
2023-04-17T18:25:45.881Z,10.70
2023-04-17T18:30:50.872Z,12.10
2023-04-17T18:33:22.943Z,12.30
2023-04-17T18:38:27.829Z,11.30
2023-04-17T18:43:33.443Z,11.00
2023-04-17T18:46:08.086Z,10.90
2023-04-17T18:51:14.741Z,10.90
2023-04-17T18:53:47.451Z,10.80
2023-04-17T19:01:25.168Z,10.60
2023-04-17T19:03:57.768Z,10.50
2023-04-17T19:09:04.088Z,10.40
2023-04-17T19:11:36.205Z,10.40
2023-04-17T19:19:14.537Z,10.30
2023-04-17T19:21:46.556Z,10.30
2023-04-17T19:26:51.539Z,10.30
2023-04-17T19:31:56.539Z,10.90
2023-04-17T19:37:01.534Z,10.30
2023-04-17T19:39:34.150Z,10.20
2023-04-17T19:47:12.132Z,10.20
2023-04-17T19:49:45.166Z,10.20
2023-04-17T19:52:17.079Z,10.20
2023-04-17T19:54:51.212Z,10.20
2023-04-17T19:57:23.150Z,10.20
2023-04-17T19:59:55.760Z,10.10
2023-04-17T20:02:27.843Z,10.10
2023-04-17T20:10:06.753Z,9.90
2023-04-17T20:12:39.086Z,9.90
2023-04-17T20:15:11.497Z,9.80
2023-04-17T20:17:44.252Z,9.80
2023-04-17T20:20:16.268Z,9.80
2023-04-17T20:22:49.433Z,9.70
2023-04-17T20:25:21.330Z,9.70
2023-04-17T20:33:01.961Z,9.70
2023-04-17T20:35:34.059Z,9.70
2023-04-17T20:38:06.615Z,9.60
2023-04-17T20:45:45.283Z,9.60
2023-04-17T20:53:23.876Z,9.40
2023-04-17T20:55:57.788Z,9.50
2023-04-17T20:58:30.611Z,9.50
2023-04-17T21:03:36.100Z,9.50
2023-04-17T21:06:08.164Z,9.50
2023-04-17T21:08:40.897Z,9.50
2023-04-17T21:11:12.777Z,9.50
2023-04-17T21:18:50.839Z,9.40
2023-04-17T21:21:22.730Z,9.50
2023-04-17T21:23:55.273Z,9.40
2023-04-17T21:29:00.133Z,9.30
2023-04-17T21:31:32.200Z,9.20
2023-04-17T21:34:04.815Z,9.20
2023-04-17T21:36:36.768Z,9.20
2023-04-17T21:39:09.715Z,9.20
2023-04-17T21:41:41.612Z,9.10
2023-04-17T21:46:47.386Z,9.00
2023-04-17T21:49:21.022Z,9.00
2023-04-17T21:51:53.279Z,8.90
2023-04-17T21:54:26.726Z,8.90
2023-04-17T21:56:59.448Z,8.90
2023-04-17T21:59:31.364Z,8.80
2023-04-17T22:02:04.588Z,8.70
2023-04-17T22:07:10.241Z,8.90
2023-04-17T22:09:42.127Z,8.90
2023-04-17T22:12:18.080Z,8.80
2023-04-17T22:14:50.289Z,8.80
2023-04-17T22:17:22.617Z,8.90
2023-04-17T22:19:55.797Z,9.20
2023-04-17T22:22:28.353Z,9.10
2023-04-17T22:25:00.232Z,8.90
2023-04-17T22:27:32.880Z,8.80
2023-04-17T22:30:06.305Z,8.90
2023-04-17T22:32:38.898Z,8.90
2023-04-17T22:37:43.918Z,9.00
2023-04-17T22:47:55.241Z,9.50
2023-04-17T22:50:30.270Z,9.60
2023-04-17T22:55:36.466Z,9.70
2023-04-17T22:58:08.508Z,9.70
2023-04-17T23:08:19.240Z,9.80
2023-04-17T23:11:02.130Z,9.70
2023-04-17T23:16:07.508Z,9.50
2023-04-17T23:21:12.346Z,9.40
2023-04-17T23:28:53.586Z,9.20
2023-04-17T23:33:58.538Z,9.00
2023-04-17T23:36:31.978Z,9.10
2023-04-17T23:39:05.629Z,9.20
2023-04-17T23:41:42.493Z,9.20
2023-04-17T23:44:14.832Z,9.30
2023-04-17T23:46:47.943Z,9.40
2023-04-17T23:49:19.914Z,9.40
2023-04-17T23:51:52.466Z,9.40
2023-04-17T23:54:24.504Z,9.30
2023-04-17T23:56:57.174Z,9.30
2023-04-17T23:59:29.437Z,9.30
